createdAt,value
2018-08-24T00:00:32.552Z,16.30
2018-08-24T00:03:01.913Z,16.30
2018-08-24T00:05:31.178Z,16.20
2018-08-24T00:08:00.394Z,16.20
2018-08-24T00:10:29.657Z,16.20
2018-08-24T00:12:59.059Z,16.20
2018-08-24T00:15:28.511Z,16.20
2018-08-24T00:17:57.933Z,16.20
2018-08-24T00:20:27.235Z,16.10
2018-08-24T00:22:56.946Z,16.10
2018-08-24T00:25:27.329Z,16.10
2018-08-24T00:27:56.725Z,16.10
2018-08-24T00:30:26.767Z,16.10
2018-08-24T00:32:56.081Z,16.00
2018-08-24T00:35:25.365Z,16.00
2018-08-24T00:37:54.625Z,16.00
2018-08-24T00:40:23.969Z,16.00
2018-08-24T00:42:53.391Z,16.00
2018-08-24T00:45:22.643Z,16.10
2018-08-24T00:47:52.816Z,16.10
2018-08-24T00:50:22.085Z,16.10
2018-08-24T00:52:51.573Z,16.10
2018-08-24T00:55:21.005Z,16.00
2018-08-24T00:57:50.272Z,15.90
2018-08-24T01:00:19.707Z,16.00
2018-08-24T01:02:49.058Z,16.00
2018-08-24T01:05:18.323Z,16.00
2018-08-24T01:08:19.291Z,16.00
2018-08-24T01:10:48.567Z,16.00
2018-08-24T01:13:17.961Z,16.00
2018-08-24T01:16:02.168Z,16.00
2018-08-24T01:18:36.879Z,16.10
2018-08-24T01:21:06.364Z,16.10
2018-08-24T01:23:35.764Z,16.10
2018-08-24T01:26:07.724Z,16.00
2018-08-24T01:28:36.939Z,16.00
2018-08-24T01:31:08.013Z,16.00
2018-08-24T01:33:38.024Z,16.10
2018-08-24T01:36:07.494Z,16.10
2018-08-24T01:38:36.829Z,16.00
2018-08-24T01:41:07.155Z,16.00
2018-08-24T01:43:36.551Z,16.10
2018-08-24T01:46:12.370Z,16.10
2018-08-24T01:48:42.439Z,16.00
2018-08-24T01:51:12.467Z,16.00
2018-08-24T01:53:42.430Z,16.00
2018-08-24T01:56:12.510Z,16.10
2018-08-24T01:58:41.973Z,16.10
2018-08-24T02:01:11.305Z,16.10
2018-08-24T02:03:40.526Z,16.00
2018-08-24T02:06:11.094Z,16.00
2018-08-24T02:08:40.616Z,16.00
2018-08-24T02:11:15.317Z,16.00
2018-08-24T02:13:50.899Z,15.90
2018-08-24T02:16:20.664Z,15.90
2018-08-24T02:18:56.062Z,15.90
2018-08-24T02:21:30.840Z,15.90
2018-08-24T02:24:01.111Z,15.90
2018-08-24T02:26:31.111Z,15.90
2018-08-24T02:29:00.867Z,15.90
2018-08-24T02:31:34.319Z,15.90
2018-08-24T02:34:03.531Z,16.00
2018-08-24T02:36:33.383Z,15.90
2018-08-24T02:39:02.856Z,15.90
2018-08-24T02:41:32.232Z,15.90
2018-08-24T02:44:01.439Z,16.00
2018-08-24T02:46:30.842Z,16.00
2018-08-24T02:49:00.359Z,16.10
2018-08-24T02:51:29.921Z,16.00
2018-08-24T02:53:59.403Z,15.90
2018-08-24T02:56:28.937Z,16.00
2018-08-24T02:58:58.140Z,16.00
2018-08-24T03:01:27.547Z,16.00
2018-08-24T03:03:56.925Z,16.00
2018-08-24T03:06:26.937Z,16.10
2018-08-24T03:08:57.680Z,16.00
2018-08-24T03:11:28.397Z,16.00
2018-08-24T03:13:57.904Z,16.10
2018-08-24T03:16:27.373Z,16.00
2018-08-24T03:18:56.671Z,16.00
2018-08-24T03:21:26.093Z,15.90
2018-08-24T03:23:55.256Z,15.90
2018-08-24T03:26:24.718Z,15.90
2018-08-24T03:28:53.981Z,15.90
2018-08-24T03:31:23.415Z,15.90
2018-08-24T03:33:52.777Z,15.90
2018-08-24T03:36:22.928Z,15.90
2018-08-24T03:38:52.505Z,15.90
2018-08-24T03:41:22.130Z,15.90
2018-08-24T03:43:52.330Z,15.90
2018-08-24T03:46:21.611Z,15.90
2018-08-24T03:48:50.853Z,15.90
2018-08-24T03:51:20.287Z,15.80
2018-08-24T03:53:49.905Z,15.80
2018-08-24T03:56:19.290Z,15.80
2018-08-24T03:58:48.610Z,15.70
2018-08-24T04:01:17.984Z,15.70
2018-08-24T04:03:47.555Z,15.60
2018-08-24T04:06:16.860Z,15.60
2018-08-24T04:08:46.122Z,15.50
2018-08-24T04:11:15.354Z,15.50
2018-08-24T04:13:44.824Z,15.50
2018-08-24T04:16:14.948Z,15.40
2018-08-24T04:18:44.834Z,15.40
2018-08-24T04:21:14.333Z,15.40
2018-08-24T04:23:44.511Z,15.30
2018-08-24T04:26:14.014Z,15.30
2018-08-24T04:28:43.503Z,15.20
2018-08-24T04:31:12.967Z,15.20
2018-08-24T04:33:42.497Z,15.20
2018-08-24T04:36:12.298Z,15.10
2018-08-24T04:38:41.584Z,15.10
2018-08-24T04:41:10.955Z,15.10
2018-08-24T04:43:40.577Z,15.10
2018-08-24T04:46:10.293Z,15.00
2018-08-24T04:48:40.495Z,15.00
2018-08-24T04:51:10.303Z,14.90
2018-08-24T04:53:40.401Z,14.90
2018-08-24T04:56:10.674Z,14.80
2018-08-24T04:58:41.367Z,14.80
2018-08-24T05:01:10.644Z,14.80
2018-08-24T05:03:40.158Z,14.70
2018-08-24T05:06:10.165Z,14.60
2018-08-24T05:08:39.836Z,14.60
2018-08-24T05:11:09.351Z,14.50
2018-08-24T05:13:38.639Z,14.50
2018-08-24T05:16:07.878Z,14.40
2018-08-24T05:18:37.156Z,14.30
2018-08-24T05:21:07.625Z,14.30
2018-08-24T05:23:36.977Z,14.20
2018-08-24T05:26:06.696Z,14.20
2018-08-24T05:28:36.050Z,14.10
2018-08-24T05:31:05.776Z,14.00
2018-08-24T05:33:35.508Z,14.00
2018-08-24T05:36:04.928Z,14.00
2018-08-24T05:38:34.211Z,13.90
2018-08-24T05:41:03.759Z,13.90
2018-08-24T05:43:33.730Z,13.90
2018-08-24T05:46:03.589Z,14.00
2018-08-24T05:48:33.280Z,14.00
2018-08-24T05:51:02.792Z,14.10
2018-08-24T05:53:32.405Z,14.20
2018-08-24T05:56:02.780Z,14.30
2018-08-24T05:58:32.751Z,14.30
2018-08-24T06:01:02.252Z,14.40
2018-08-24T06:03:32.676Z,14.50
2018-08-24T06:06:03.263Z,14.50
2018-08-24T06:08:33.373Z,14.70
2018-08-24T06:11:03.324Z,14.80
2018-08-24T06:13:32.942Z,14.80
2018-08-24T06:16:03.056Z,15.00
2018-08-24T06:18:32.329Z,15.10
2018-08-24T06:21:01.812Z,15.20
2018-08-24T06:23:31.198Z,15.20
2018-08-24T06:26:00.845Z,15.40
2018-08-24T06:28:30.540Z,15.50
2018-08-24T06:30:59.886Z,15.70
2018-08-24T06:33:29.366Z,15.80
2018-08-24T06:35:58.690Z,15.90
2018-08-24T06:38:28.850Z,16.00
2018-08-24T06:40:58.205Z,16.10
2018-08-24T06:43:27.630Z,16.10
2018-08-24T06:45:57.046Z,16.20
2018-08-24T06:48:26.749Z,16.30
2018-08-24T06:50:56.542Z,16.50
2018-08-24T06:53:26.181Z,16.50
2018-08-24T06:55:56.162Z,16.60
2018-08-24T06:58:25.703Z,16.70
2018-08-24T07:00:55.169Z,16.70
2018-08-24T07:03:24.622Z,16.80
2018-08-24T07:05:54.336Z,17.00
2018-08-24T07:08:23.900Z,17.00
2018-08-24T07:10:53.165Z,17.20
2018-08-24T07:13:22.630Z,17.10
2018-08-24T07:15:53.428Z,17.20
2018-08-24T07:18:22.951Z,17.20
2018-08-24T07:20:53.215Z,17.10
2018-08-24T07:23:22.713Z,17.20
2018-08-24T07:25:53.479Z,17.20
2018-08-24T07:28:22.896Z,17.30
2018-08-24T07:30:52.146Z,17.50
2018-08-24T07:33:21.821Z,17.50
2018-08-24T07:35:52.021Z,17.40
2018-08-24T07:38:22.299Z,17.50
2018-08-24T07:40:52.014Z,17.40
2018-08-24T07:43:22.559Z,17.50
2018-08-24T07:45:52.178Z,17.60
2018-08-24T07:48:22.508Z,17.70
2018-08-24T07:50:51.940Z,17.80
2018-08-24T07:53:22.599Z,18.00
2018-08-24T07:55:52.952Z,18.00
2018-08-24T07:58:23.220Z,18.10
2018-08-24T08:00:52.508Z,18.10
2018-08-24T08:03:21.927Z,18.10
2018-08-24T08:05:52.179Z,18.10
2018-08-24T08:08:21.827Z,18.20
2018-08-24T08:10:51.947Z,18.30
2018-08-24T08:13:21.448Z,18.10
2018-08-24T08:15:51.087Z,18.30
2018-08-24T08:18:20.667Z,18.30
2018-08-24T08:20:50.244Z,18.20
2018-08-24T08:23:19.773Z,18.20
2018-08-24T08:25:49.742Z,18.00
2018-08-24T08:28:19.294Z,17.80
2018-08-24T08:30:49.210Z,17.60
2018-08-24T08:33:19.798Z,17.30
2018-08-24T08:35:49.254Z,17.20
2018-08-24T08:38:19.970Z,17.20
2018-08-24T08:40:49.962Z,17.30
2018-08-24T08:43:19.510Z,17.70
2018-08-24T08:45:49.471Z,18.20
2018-08-24T08:48:19.470Z,18.60
2018-08-24T08:50:48.929Z,19.00
2018-08-24T08:53:18.435Z,19.20
2018-08-24T08:55:47.736Z,19.40
2018-08-24T08:58:18.309Z,19.60
2018-08-24T09:00:48.372Z,19.30
2018-08-24T09:03:18.258Z,19.50
2018-08-24T09:05:48.186Z,19.50
2018-08-24T09:08:18.392Z,19.30
2018-08-24T09:10:48.109Z,18.80
2018-08-24T09:13:17.592Z,18.30
2018-08-24T09:15:46.988Z,18.00
2018-08-24T09:18:21.887Z,18.30
2018-08-24T09:20:56.636Z,18.70
2018-08-24T09:23:32.633Z,19.10
2018-08-24T09:26:07.962Z,19.00
2018-08-24T09:28:38.330Z,19.00
2018-08-24T09:31:16.531Z,19.10
2018-08-24T09:33:47.267Z,19.20
2018-08-24T09:36:19.031Z,19.40
2018-08-24T09:38:50.351Z,19.70
2018-08-24T09:41:19.928Z,19.90
2018-08-24T09:43:56.224Z,19.80
2018-08-24T09:46:30.994Z,19.00
2018-08-24T09:49:05.694Z,18.40
2018-08-24T09:51:44.274Z,17.90
2018-08-24T09:54:14.211Z,17.90
2018-08-24T09:56:44.054Z,18.30
2018-08-24T09:59:13.443Z,18.40
2018-08-24T10:01:48.409Z,18.40
2018-08-24T10:04:23.031Z,18.40
2018-08-24T10:06:58.043Z,18.80
2018-08-24T10:09:27.659Z,19.00
2018-08-24T10:11:57.069Z,19.20
2018-08-24T10:14:27.221Z,19.50
2018-08-24T10:16:56.594Z,20.00
2018-08-24T10:19:26.459Z,20.00
2018-08-24T10:21:56.599Z,20.20
2018-08-24T10:24:25.937Z,19.90
2018-08-24T10:26:55.405Z,20.00
2018-08-24T10:29:24.763Z,20.30
2018-08-24T10:31:54.375Z,20.40
2018-08-24T10:34:23.831Z,20.80
2018-08-24T10:36:54.066Z,21.00
2018-08-24T10:39:23.506Z,20.90
2018-08-24T10:41:53.649Z,20.70
2018-08-24T10:44:23.147Z,20.30
2018-08-24T10:46:52.572Z,19.90
2018-08-24T10:49:22.063Z,19.80
2018-08-24T10:51:51.510Z,19.40
2018-08-24T10:54:20.927Z,19.70
2018-08-24T10:56:50.447Z,20.10
2018-08-24T10:59:19.979Z,20.30
2018-08-24T11:01:49.502Z,20.90
2018-08-24T11:04:19.149Z,21.30
2018-08-24T11:06:49.480Z,21.10
2018-08-24T11:09:18.760Z,20.80
2018-08-24T11:11:48.273Z,20.50
2018-08-24T11:14:18.813Z,20.90
2018-08-24T11:16:48.173Z,21.30
2018-08-24T11:19:17.513Z,20.70
2018-08-24T11:21:48.090Z,20.30
2018-08-24T11:24:21.707Z,19.60
2018-08-24T11:26:51.429Z,19.40
2018-08-24T11:29:20.789Z,19.20
2018-08-24T11:31:51.130Z,19.00
2018-08-24T11:34:20.845Z,19.20
2018-08-24T11:36:50.179Z,19.40
2018-08-24T11:39:20.381Z,19.50
2018-08-24T11:41:51.472Z,19.50
2018-08-24T11:44:20.795Z,19.40
2018-08-24T11:46:50.310Z,19.70
2018-08-24T11:49:19.664Z,19.50
2018-08-24T11:51:49.819Z,19.60
2018-08-24T11:54:19.911Z,19.40
2018-08-24T11:56:49.363Z,19.70
2018-08-24T11:59:18.980Z,19.60
2018-08-24T12:01:48.495Z,20.10
2018-08-24T12:04:18.803Z,20.20
2018-08-24T12:06:48.191Z,19.60
2018-08-24T12:09:17.733Z,19.70
2018-08-24T12:11:47.190Z,19.70
2018-08-24T12:14:16.888Z,19.90
2018-08-24T12:16:46.537Z,20.30
2018-08-24T12:19:16.619Z,20.80
2018-08-24T12:21:46.025Z,20.90
2018-08-24T12:24:15.534Z,21.20
2018-08-24T12:26:45.081Z,21.20
2018-08-24T12:29:14.763Z,21.10
2018-08-24T12:31:44.905Z,21.10
2018-08-24T12:34:14.411Z,21.30
2018-08-24T12:36:45.143Z,21.40
2018-08-24T12:39:15.282Z,21.40
2018-08-24T12:41:45.491Z,21.30
2018-08-24T12:44:15.435Z,21.10
2018-08-24T12:46:45.398Z,21.00
2018-08-24T12:49:15.400Z,21.00
2018-08-24T12:51:44.995Z,20.90
2018-08-24T12:54:14.455Z,20.90
2018-08-24T12:56:43.991Z,21.10
2018-08-24T12:59:13.455Z,21.10
2018-08-24T13:01:43.468Z,21.20
2018-08-24T13:04:12.942Z,21.30
2018-08-24T13:06:43.117Z,21.40
2018-08-24T13:09:12.955Z,21.10
2018-08-24T13:11:42.368Z,21.20
2018-08-24T13:14:11.978Z,21.20
2018-08-24T13:16:42.278Z,21.40
2018-08-24T13:19:11.786Z,21.20
2018-08-24T13:21:41.782Z,21.10
2018-08-24T13:24:11.770Z,21.40
2018-08-24T13:26:41.552Z,21.60
2018-08-24T13:29:11.993Z,21.70
2018-08-24T13:31:41.530Z,21.60
2018-08-24T13:34:11.109Z,21.70
2018-08-24T13:36:40.550Z,21.60
2018-08-24T13:39:10.200Z,21.40
2018-08-24T13:41:39.632Z,21.40
2018-08-24T13:44:09.006Z,21.30
2018-08-24T13:46:38.525Z,21.50
2018-08-24T13:49:08.066Z,21.50
2018-08-24T13:51:37.504Z,21.10
2018-08-24T13:54:06.854Z,21.20
2018-08-24T13:56:36.323Z,21.30
2018-08-24T13:59:05.867Z,21.00
2018-08-24T14:01:35.706Z,20.90
2018-08-24T14:04:05.167Z,21.00
2018-08-24T14:06:34.718Z,21.10
2018-08-24T14:09:06.018Z,21.30
2018-08-24T14:11:36.244Z,21.20
2018-08-24T14:14:05.997Z,21.20
2018-08-24T14:16:36.201Z,21.10
2018-08-24T14:19:05.589Z,20.90
2018-08-24T14:21:35.414Z,21.10
2018-08-24T14:24:05.174Z,21.00
2018-08-24T14:26:35.023Z,21.00
2018-08-24T14:29:05.437Z,20.80
2018-08-24T14:31:35.105Z,20.70
2018-08-24T14:34:04.521Z,20.60
2018-08-24T14:36:35.503Z,20.50
2018-08-24T14:41:32.982Z,20.30
2018-08-24T14:44:02.887Z,20.00
2018-08-24T14:46:32.316Z,20.10
2018-08-24T14:49:01.611Z,20.00
2018-08-24T14:51:31.990Z,20.20
2018-08-24T14:54:01.415Z,20.40
2018-08-24T14:56:30.684Z,20.50
2018-08-24T14:58:59.968Z,20.40
2018-08-24T15:01:29.215Z,20.40
2018-08-24T15:03:58.529Z,20.40
2018-08-24T15:06:27.972Z,20.20
2018-08-24T15:08:57.452Z,20.30
2018-08-24T15:11:26.826Z,20.30
2018-08-24T15:13:56.188Z,20.00
2018-08-24T15:16:27.162Z,20.00
2018-08-24T15:18:58.352Z,20.20
2018-08-24T15:21:27.701Z,20.30
2018-08-24T15:23:57.140Z,20.50
2018-08-24T15:26:27.859Z,20.60
2018-08-24T15:28:57.881Z,20.60
2018-08-24T15:31:27.419Z,20.60
2018-08-24T15:33:56.918Z,20.50
2018-08-24T15:36:27.676Z,20.40
2018-08-24T15:38:57.098Z,20.20
2018-08-24T15:41:27.356Z,20.20
2018-08-24T15:43:57.531Z,20.20
2018-08-24T15:46:27.690Z,20.20
2018-08-24T15:48:57.123Z,20.20
2018-08-24T15:51:26.449Z,20.10
2018-08-24T15:53:56.084Z,20.00
2018-08-24T15:56:25.794Z,20.00
2018-08-24T15:58:55.904Z,20.00
2018-08-24T16:01:25.251Z,20.10
2018-08-24T16:03:55.533Z,20.00
2018-08-24T16:06:25.430Z,20.10
2018-08-24T16:08:55.411Z,20.10
2018-08-24T16:11:24.863Z,19.90
2018-08-24T16:13:54.264Z,19.80
2018-08-24T16:16:34.010Z,19.80
2018-08-24T16:19:03.411Z,19.90
2018-08-24T16:21:33.217Z,20.00
2018-08-24T16:24:02.650Z,20.10
2018-08-24T16:26:32.008Z,20.20
2018-08-24T16:29:01.334Z,20.30
2018-08-24T16:31:30.748Z,20.40
2018-08-24T16:34:00.752Z,20.40
2018-08-24T16:36:31.008Z,20.20
2018-08-24T16:39:00.494Z,20.00
2018-08-24T16:41:29.954Z,19.80
2018-08-24T16:43:59.590Z,19.50
2018-08-24T16:46:29.456Z,19.50
2018-08-24T16:48:59.212Z,19.50
2018-08-24T16:51:29.906Z,19.50
2018-08-24T16:53:59.818Z,19.30
2018-08-24T16:56:29.092Z,19.30
2018-08-24T16:58:58.829Z,19.10
2018-08-24T17:01:28.598Z,19.00
2018-08-24T17:03:58.153Z,19.00
2018-08-24T17:06:27.523Z,19.00
2018-08-24T17:08:57.548Z,19.00
2018-08-24T17:11:27.260Z,18.90
2018-08-24T17:13:57.211Z,18.90
2018-08-24T17:16:26.535Z,18.90
2018-08-24T17:18:55.828Z,18.80
2018-08-24T17:21:25.253Z,18.80
2018-08-24T17:23:54.799Z,18.70
2018-08-24T17:26:24.344Z,18.60
2018-08-24T17:28:54.536Z,18.50
2018-08-24T17:31:23.964Z,18.50
2018-08-24T17:33:53.242Z,18.40
2018-08-24T17:36:22.903Z,18.40
2018-08-24T17:38:52.604Z,18.20
2018-08-24T17:41:22.274Z,18.10
2018-08-24T17:43:51.881Z,18.00
2018-08-24T17:46:21.455Z,17.90
2018-08-24T17:48:50.792Z,17.80
2018-08-24T17:51:21.149Z,17.70
2018-08-24T17:53:50.654Z,17.60
2018-08-24T17:56:20.223Z,17.50
2018-08-24T17:58:49.841Z,17.50
2018-08-24T18:01:19.411Z,17.40
2018-08-24T18:03:48.945Z,17.30
2018-08-24T18:06:18.837Z,17.20
2018-08-24T18:08:48.130Z,17.20
2018-08-24T18:11:18.288Z,17.10
2018-08-24T18:13:47.994Z,17.10
2018-08-24T18:16:17.738Z,17.00
2018-08-24T18:18:47.116Z,17.00
2018-08-24T18:21:16.460Z,16.90
2018-08-24T18:23:46.831Z,16.80
2018-08-24T18:26:16.266Z,16.80
2018-08-24T18:28:45.684Z,16.70
2018-08-24T18:31:15.514Z,16.70
2018-08-24T18:33:45.079Z,16.60
2018-08-24T18:36:14.707Z,16.60
2018-08-24T18:38:44.388Z,16.50
2018-08-24T18:41:14.098Z,16.50
2018-08-24T18:43:43.680Z,16.50
2018-08-24T18:46:13.225Z,16.50
2018-08-24T18:48:42.799Z,16.40
2018-08-24T18:51:12.316Z,16.40
2018-08-24T18:53:41.999Z,16.30
2018-08-24T18:56:12.252Z,16.40
2018-08-24T18:58:41.865Z,16.40
2018-08-24T19:01:11.143Z,16.30
2018-08-24T19:03:40.509Z,16.30
2018-08-24T19:06:10.027Z,16.30
2018-08-24T19:08:40.316Z,16.30
2018-08-24T19:11:15.201Z,16.20
2018-08-24T19:13:44.919Z,16.10
2018-08-24T19:16:14.380Z,16.10
2018-08-24T19:19:48.050Z,16.10
2018-08-24T19:22:17.776Z,16.10
2018-08-24T19:24:47.115Z,16.00
2018-08-24T19:27:16.448Z,16.00
2018-08-24T19:29:50.991Z,15.90
2018-08-24T19:32:21.439Z,15.90
2018-08-24T19:34:51.123Z,15.90
2018-08-24T19:37:20.420Z,15.90
2018-08-24T19:39:55.019Z,15.80
2018-08-24T19:42:25.775Z,15.80
2018-08-24T19:44:55.627Z,15.80
2018-08-24T19:47:30.288Z,15.70
2018-08-24T19:49:59.732Z,15.80
2018-08-24T19:52:29.787Z,15.80
2018-08-24T19:54:59.165Z,15.80
2018-08-24T19:57:34.043Z,15.70
2018-08-24T20:00:03.659Z,15.70
2018-08-24T20:02:33.035Z,15.60
2018-08-24T20:05:02.568Z,15.60
2018-08-24T20:07:37.103Z,15.60
2018-08-24T20:10:09.296Z,15.60
2018-08-24T20:12:39.318Z,15.60
2018-08-24T20:15:14.092Z,15.60
2018-08-24T20:17:43.562Z,15.60
2018-08-24T20:20:12.891Z,15.60
2018-08-24T20:22:42.504Z,15.50
2018-08-24T20:25:13.108Z,15.50
2018-08-24T20:27:42.375Z,15.40
2018-08-24T20:30:11.783Z,15.40
2018-08-24T20:32:41.271Z,15.30
2018-08-24T20:35:10.907Z,15.40
2018-08-24T20:37:40.252Z,15.40
2018-08-24T20:40:10.988Z,15.40
2018-08-24T20:42:40.270Z,15.30
2018-08-24T20:45:09.531Z,15.20
2018-08-24T20:47:39.020Z,15.40
2018-08-24T20:50:08.784Z,15.40
2018-08-24T20:52:38.148Z,15.40
2018-08-24T20:55:08.783Z,15.50
2018-08-24T20:57:38.040Z,15.50
2018-08-24T21:00:07.553Z,15.50
2018-08-24T21:02:37.126Z,15.40
2018-08-24T21:05:06.631Z,15.40
2018-08-24T21:07:36.072Z,15.40
2018-08-24T21:10:05.594Z,15.40
2018-08-24T21:12:34.929Z,15.40
2018-08-24T21:15:04.550Z,15.40
2018-08-24T21:17:34.586Z,15.40
2018-08-24T21:20:04.089Z,15.40
2018-08-24T21:22:33.425Z,15.40
2018-08-24T21:25:03.020Z,15.40
2018-08-24T21:27:32.448Z,15.30
2018-08-24T21:30:02.500Z,15.40
2018-08-24T21:32:31.707Z,15.40
2018-08-24T21:35:02.307Z,15.40
2018-08-24T21:37:33.258Z,15.30
2018-08-24T21:40:02.577Z,15.30
2018-08-24T21:42:31.980Z,15.30
2018-08-24T21:45:01.210Z,15.20
2018-08-24T21:47:30.409Z,15.10
2018-08-24T21:49:59.932Z,15.00
2018-08-24T21:52:29.419Z,15.00
2018-08-24T21:54:59.626Z,14.90
2018-08-24T21:57:28.902Z,14.80
2018-08-24T21:59:58.177Z,14.60
2018-08-24T22:02:28.315Z,14.40
2018-08-24T22:04:57.701Z,14.30
2018-08-24T22:07:27.119Z,14.20
2018-08-24T22:09:56.459Z,14.10
2018-08-24T22:12:26.070Z,14.10
2018-08-24T22:14:55.757Z,14.00
2018-08-24T22:17:25.571Z,14.00
2018-08-24T22:19:54.841Z,14.00
2018-08-24T22:22:24.282Z,13.90
2018-08-24T22:24:54.713Z,13.80
2018-08-24T22:27:24.010Z,13.80
2018-08-24T22:29:53.349Z,13.80
2018-08-24T22:32:22.721Z,13.70
2018-08-24T22:34:52.040Z,13.80
2018-08-24T22:37:21.273Z,13.70
2018-08-24T22:39:50.828Z,13.70
2018-08-24T22:42:20.156Z,13.70
2018-08-24T22:44:49.536Z,13.60
2018-08-24T22:47:18.875Z,13.40
2018-08-24T22:49:48.146Z,13.40
2018-08-24T22:52:17.984Z,13.40
2018-08-24T22:54:47.348Z,13.30
2018-08-24T22:57:16.676Z,13.30
2018-08-24T22:59:46.047Z,13.10
2018-08-24T23:02:16.349Z,13.10
2018-08-24T23:04:45.722Z,13.10
2018-08-24T23:07:15.251Z,13.00
2018-08-24T23:09:44.525Z,13.00
2018-08-24T23:12:14.177Z,12.90
2018-08-24T23:14:43.503Z,12.90
2018-08-24T23:17:12.918Z,12.90
2018-08-24T23:19:42.535Z,12.80
2018-08-24T23:22:12.137Z,12.80
2018-08-24T23:24:42.083Z,12.80
2018-08-24T23:27:11.969Z,12.80
2018-08-24T23:29:41.421Z,12.80
2018-08-24T23:32:10.970Z,12.80
2018-08-24T23:34:41.024Z,12.70
2018-08-24T23:37:10.257Z,12.70
2018-08-24T23:39:39.584Z,12.70
2018-08-24T23:42:09.127Z,12.70
2018-08-24T23:44:38.546Z,12.70
2018-08-24T23:47:08.127Z,12.70
2018-08-24T23:49:37.433Z,12.70
2018-08-24T23:52:06.717Z,12.60
2018-08-24T23:54:35.976Z,12.70
2018-08-24T23:57:05.307Z,12.60
2018-08-24T23:59:34.598Z,12.70
